createdAt,value
2022-12-06T00:01:29.562Z,97917.06
2022-12-06T00:03:59.209Z,97935.91
2022-12-06T00:06:28.733Z,97931.38
2022-12-06T00:08:57.480Z,97935.59
2022-12-06T00:11:27.149Z,97932.22
2022-12-06T00:14:00.216Z,97927.00
2022-12-06T00:16:28.515Z,97925.22
2022-12-06T00:18:56.343Z,97914.97
2022-12-06T00:21:26.395Z,97915.78
2022-12-06T00:23:55.803Z,97918.91
2022-12-06T00:26:23.791Z,97905.91
2022-12-06T00:28:53.101Z,97911.84
2022-12-06T00:31:22.015Z,97907.56
2022-12-06T00:33:49.136Z,97904.13
2022-12-06T00:36:21.306Z,97905.63
2022-12-06T00:38:49.072Z,97892.34
2022-12-06T00:41:21.772Z,97902.97
2022-12-06T00:43:49.511Z,97902.28
2022-12-06T00:46:19.681Z,97909.06
2022-12-06T00:48:48.216Z,97904.69
2022-12-06T00:51:17.236Z,97903.03
2022-12-06T00:53:45.398Z,97899.25
2022-12-06T00:56:12.967Z,97904.31
2022-12-06T00:58:40.259Z,97903.69
2022-12-06T01:01:12.539Z,97889.16
2022-12-06T01:03:41.160Z,97895.72
2022-12-06T01:06:10.891Z,97883.25
2022-12-06T01:08:39.001Z,97890.16
2022-12-06T01:11:07.819Z,97877.28
2022-12-06T01:13:35.240Z,97881.06
2022-12-06T01:16:10.363Z,97876.53
2022-12-06T01:18:38.047Z,97875.84
2022-12-06T01:21:08.018Z,97876.03
2022-12-06T01:23:35.229Z,97879.72
2022-12-06T01:26:03.229Z,97876.34
2022-12-06T01:28:30.019Z,97878.53
2022-12-06T01:30:57.614Z,97867.44
2022-12-06T01:33:24.786Z,97865.59
2022-12-06T01:35:51.875Z,97870.72
2022-12-06T01:38:18.995Z,97856.06
2022-12-06T01:40:48.385Z,97868.94
2022-12-06T01:43:33.827Z,97864.50
2022-12-06T01:46:13.252Z,97864.41
2022-12-06T01:48:41.164Z,97865.22
2022-12-06T01:51:11.236Z,97859.69
2022-12-06T01:53:40.596Z,97861.34
2022-12-06T01:56:09.035Z,97849.59
2022-12-06T01:58:39.142Z,97852.13
2022-12-06T02:01:08.053Z,97845.41
2022-12-06T02:03:36.056Z,97858.34
2022-12-06T02:06:06.427Z,97842.03
2022-12-06T02:08:34.306Z,97844.19
2022-12-06T02:11:02.980Z,97838.97
2022-12-06T02:13:32.240Z,97838.81
2022-12-06T02:16:09.088Z,97842.09
2022-12-06T02:18:51.842Z,97836.78
2022-12-06T02:21:27.420Z,97842.84
2022-12-06T02:24:23.374Z,97840.16
2022-12-06T02:27:00.393Z,97838.09
2022-12-06T02:29:36.434Z,97836.59
2022-12-06T02:32:16.986Z,97828.03
2022-12-06T02:34:54.939Z,97835.47
2022-12-06T02:37:29.469Z,97846.63
2022-12-06T02:40:03.383Z,97841.69
2022-12-06T02:42:41.221Z,97842.53
2022-12-06T02:45:19.203Z,97841.19
2022-12-06T02:47:48.563Z,97840.63
2022-12-06T02:50:20.088Z,97829.09
2022-12-06T02:52:51.365Z,97828.25
2022-12-06T02:55:19.916Z,97833.53
2022-12-06T02:57:50.267Z,97834.31
2022-12-06T03:00:36.264Z,97835.97
2022-12-06T03:03:12.498Z,97847.19
2022-12-06T03:05:52.951Z,97842.03
2022-12-06T03:08:33.965Z,97838.84
2022-12-06T03:11:02.205Z,97838.50
2022-12-06T03:13:51.235Z,97841.03
2022-12-06T03:16:47.679Z,97841.97
2022-12-06T03:19:22.240Z,97835.97
2022-12-06T03:22:06.088Z,97831.88
2022-12-06T03:24:36.884Z,97840.03
2022-12-06T03:27:12.198Z,97845.91
2022-12-06T03:29:45.988Z,97850.97
2022-12-06T03:32:16.371Z,97847.59
2022-12-06T03:34:48.128Z,97845.91
2022-12-06T03:37:22.150Z,97835.66
2022-12-06T03:40:12.977Z,97848.19
2022-12-06T03:42:40.508Z,97843.25
2022-12-06T03:45:10.927Z,97852.72
2022-12-06T03:47:51.299Z,97851.63
2022-12-06T03:50:24.570Z,97849.84
2022-12-06T03:52:54.926Z,97852.41
2022-12-06T03:55:22.492Z,97856.56
2022-12-06T03:57:49.574Z,97846.25
2022-12-06T04:00:17.094Z,97841.19
2022-12-06T04:02:44.101Z,97844.38
2022-12-06T04:05:11.949Z,97826.72
2022-12-06T04:07:39.411Z,97830.19
2022-12-06T04:10:07.426Z,97840.88
2022-12-06T04:12:53.722Z,97841.22
2022-12-06T04:15:22.880Z,97842.25
2022-12-06T04:18:08.640Z,97833.19
2022-12-06T04:20:54.496Z,97822.81
2022-12-06T04:23:21.946Z,97834.19
2022-12-06T04:25:49.174Z,97836.03
2022-12-06T04:28:35.188Z,97828.03
2022-12-06T04:31:22.532Z,97830.56
2022-12-06T04:34:08.999Z,97841.06
2022-12-06T04:36:56.371Z,97838.56
2022-12-06T04:39:24.409Z,97837.72
2022-12-06T04:42:11.552Z,97833.34
2022-12-06T04:44:39.171Z,97827.47
2022-12-06T04:47:07.108Z,97830.47
2022-12-06T04:49:36.064Z,97826.59
2022-12-06T04:52:04.162Z,97824.75
2022-12-06T04:54:31.499Z,97825.84
2022-12-06T04:56:59.459Z,97832.16
2022-12-06T04:59:26.933Z,97828.13
2022-12-06T05:01:54.845Z,97821.16
2022-12-06T05:04:22.889Z,97825.09
2022-12-06T05:06:49.884Z,97818.53
2022-12-06T05:09:17.160Z,97817.03
2022-12-06T05:11:44.220Z,97824.09
2022-12-06T05:14:11.524Z,97818.03
2022-12-06T05:16:38.851Z,97820.75
2022-12-06T05:19:05.990Z,97822.59
2022-12-06T05:21:32.958Z,97810.50
2022-12-06T05:24:00.070Z,97810.75
2022-12-06T05:26:29.190Z,97817.03
2022-12-06T05:28:57.610Z,97809.31
2022-12-06T05:31:26.010Z,97816.88
2022-12-06T05:33:53.826Z,97813.75
2022-12-06T05:36:26.505Z,97807.47
2022-12-06T05:38:53.921Z,97804.44
2022-12-06T05:41:23.197Z,97797.03
2022-12-06T05:43:50.349Z,97791.00
2022-12-06T05:46:18.116Z,97789.50
2022-12-06T05:48:45.520Z,97790.75
2022-12-06T05:51:13.153Z,97785.63
2022-12-06T05:53:41.127Z,97798.88
2022-12-06T05:56:09.334Z,97794.03
2022-12-06T05:58:37.075Z,97799.56
2022-12-06T06:01:05.077Z,97797.47
2022-12-06T06:03:32.115Z,97800.50
2022-12-06T06:06:01.696Z,97805.28
2022-12-06T06:08:29.984Z,97795.09
2022-12-06T06:10:57.957Z,97796.69
2022-12-06T06:13:24.957Z,97798.47
2022-12-06T06:15:52.281Z,97804.59
2022-12-06T06:18:19.831Z,97807.69
2022-12-06T06:20:58.560Z,97802.25
2022-12-06T06:23:26.598Z,97791.59
2022-12-06T06:25:54.204Z,97784.63
2022-12-06T06:28:21.663Z,97790.09
2022-12-06T06:30:48.746Z,97786.97
2022-12-06T06:33:16.578Z,97791.16
2022-12-06T06:35:43.767Z,97785.28
2022-12-06T06:38:10.928Z,97796.69
2022-12-06T06:40:38.080Z,97789.00
2022-12-06T06:43:23.810Z,97789.16
2022-12-06T06:45:56.181Z,97791.50
2022-12-06T06:48:24.367Z,97787.22
2022-12-06T06:50:57.026Z,97791.28
2022-12-06T06:53:25.442Z,97789.66
2022-12-06T06:55:54.173Z,97787.72
2022-12-06T06:58:21.492Z,97780.09
2022-12-06T07:00:54.043Z,97774.88
2022-12-06T07:03:21.428Z,97769.66
2022-12-06T07:05:59.912Z,97770.25
2022-12-06T07:08:27.841Z,97772.53
2022-12-06T07:10:55.342Z,97780.25
2022-12-06T07:13:24.456Z,97778.25
2022-12-06T07:15:52.590Z,97768.81
2022-12-06T07:18:20.421Z,97763.44
2022-12-06T07:20:48.597Z,97759.25
2022-12-06T07:23:16.257Z,97758.06
2022-12-06T07:25:43.550Z,97750.50
2022-12-06T07:28:10.477Z,97755.38
2022-12-06T07:30:37.439Z,97761.09
2022-12-06T07:33:04.424Z,97759.25
2022-12-06T07:35:55.708Z,97774.94
2022-12-06T07:38:19.499Z,97771.00
2022-12-06T07:44:08.845Z,97764.09
2022-12-06T07:46:36.091Z,97758.44
2022-12-06T07:49:03.179Z,97760.22
2022-12-06T07:54:15.934Z,97753.78
2022-12-06T07:56:44.132Z,97764.22
2022-12-06T07:59:11.670Z,97760.00
2022-12-06T08:01:38.987Z,97746.78
2022-12-06T08:04:07.268Z,97743.09
2022-12-06T08:06:35.451Z,97744.41
2022-12-06T08:09:02.472Z,97736.78
2022-12-06T08:11:29.484Z,97744.31
2022-12-06T08:13:56.528Z,97735.50
2022-12-06T08:16:23.789Z,97738.66
2022-12-06T08:18:50.717Z,97735.84
2022-12-06T08:21:17.948Z,97727.63
2022-12-06T08:23:45.078Z,97729.88
2022-12-06T08:26:15.094Z,97725.41
2022-12-06T08:28:43.539Z,97716.69
2022-12-06T08:31:16.040Z,97712.72
2022-12-06T08:33:43.447Z,97717.56
2022-12-06T08:36:16.960Z,97708.63
2022-12-06T08:38:44.510Z,97701.91
2022-12-06T08:41:29.954Z,97698.16
2022-12-06T08:43:58.509Z,97690.31
2022-12-06T08:46:25.937Z,97692.16
2022-12-06T08:48:53.557Z,97685.06
2022-12-06T08:51:20.587Z,97679.72
2022-12-06T08:53:48.082Z,97676.81
2022-12-06T08:56:15.886Z,97671.53
2022-12-06T08:58:43.353Z,97667.97
2022-12-06T09:01:16.833Z,97668.81
2022-12-06T09:03:44.052Z,97663.94
2022-12-06T09:06:12.305Z,97654.63
2022-12-06T09:08:39.484Z,97646.78
2022-12-06T09:11:08.178Z,97646.38
2022-12-06T09:13:37.353Z,97637.19
2022-12-06T09:16:10.885Z,97644.91
2022-12-06T09:18:38.229Z,97639.69
2022-12-06T09:21:07.187Z,97635.94
2022-12-06T09:23:35.382Z,97631.84
2022-12-06T09:26:03.976Z,97637.78
2022-12-06T09:28:31.296Z,97633.00
2022-12-06T09:30:58.391Z,97634.13
2022-12-06T09:33:25.859Z,97629.44
2022-12-06T09:35:53.691Z,97629.44
2022-12-06T09:38:23.153Z,97618.56
2022-12-06T09:41:05.932Z,97606.63
2022-12-06T09:43:35.761Z,97601.59
2022-12-06T09:46:17.758Z,97597.22
2022-12-06T09:49:08.899Z,97597.00
2022-12-06T09:51:57.139Z,97600.09
2022-12-06T09:54:59.883Z,97595.50
2022-12-06T09:57:50.479Z,97593.44
2022-12-06T10:00:23.471Z,97578.91
2022-12-06T10:03:04.174Z,97576.94
2022-12-06T10:05:55.664Z,97582.59
2022-12-06T10:08:57.053Z,97579.38
2022-12-06T10:11:44.290Z,97578.63
2022-12-06T10:14:38.710Z,97569.84
2022-12-06T10:17:20.732Z,97571.28
2022-12-06T10:20:34.100Z,97567.00
2022-12-06T10:23:28.171Z,97564.00
2022-12-06T10:26:15.599Z,97565.84
2022-12-06T10:28:47.520Z,97567.31
2022-12-06T10:31:46.792Z,97565.44
2022-12-06T10:34:33.972Z,97550.81
2022-12-06T10:37:07.266Z,97553.50
2022-12-06T10:40:04.365Z,97546.69
2022-12-06T10:43:04.684Z,97545.81
2022-12-06T10:46:09.577Z,97544.38
2022-12-06T10:49:09.228Z,97539.03
2022-12-06T10:51:44.018Z,97530.13
2022-12-06T10:54:39.098Z,97525.41
2022-12-06T10:57:16.098Z,97526.63
2022-12-06T10:59:51.964Z,97523.59
2022-12-06T11:02:38.206Z,97524.19
2022-12-06T11:05:15.231Z,97518.63
2022-12-06T11:07:45.603Z,97513.41
2022-12-06T11:10:29.219Z,97507.53
2022-12-06T11:13:03.887Z,97516.75
2022-12-06T11:15:38.830Z,97515.19
2022-12-06T11:18:15.907Z,97508.38
2022-12-06T11:21:03.020Z,97498.59
2022-12-06T11:23:48.627Z,97506.44
2022-12-06T11:26:44.144Z,97495.75
2022-12-06T11:29:13.921Z,97486.22
2022-12-06T11:31:56.348Z,97482.19
2022-12-06T11:34:26.669Z,97478.94
2022-12-06T11:37:00.066Z,97463.88
2022-12-06T11:39:30.278Z,97466.31
2022-12-06T11:42:02.515Z,97475.41
2022-12-06T11:44:54.022Z,97481.25
2022-12-06T11:47:23.224Z,97477.00
2022-12-06T11:49:54.613Z,97481.69
2022-12-06T11:52:34.500Z,97473.81
2022-12-06T11:55:27.838Z,97488.31
2022-12-06T11:58:09.179Z,97480.63
2022-12-06T12:00:36.369Z,97488.34
2022-12-06T12:03:03.961Z,97483.44
2022-12-06T12:05:39.056Z,97475.91
2022-12-06T12:08:16.665Z,97482.19
2022-12-06T12:10:46.042Z,97475.53
2022-12-06T12:13:31.296Z,97459.59
2022-12-06T12:16:17.769Z,97459.59
2022-12-06T12:18:51.355Z,97450.31
2022-12-06T12:21:31.600Z,97444.13
2022-12-06T12:23:58.760Z,97441.84
2022-12-06T12:26:43.139Z,97443.41
2022-12-06T12:29:21.120Z,97442.66
2022-12-06T12:31:54.318Z,97437.03
2022-12-06T12:34:29.401Z,97454.53
2022-12-06T12:37:03.013Z,97450.25
2022-12-06T12:39:45.050Z,97452.34
2022-12-06T12:42:40.269Z,97451.84
2022-12-06T12:45:19.784Z,97451.38
2022-12-06T12:47:57.837Z,97448.28
2022-12-06T12:50:25.541Z,97440.13
2022-12-06T12:52:53.540Z,97430.75
2022-12-06T12:55:24.615Z,97442.22
2022-12-06T12:57:59.255Z,97429.25
2022-12-06T13:00:37.946Z,97420.13
2022-12-06T13:03:34.817Z,97423.19
2022-12-06T13:06:00.316Z,97421.88
2022-12-06T13:08:35.350Z,97420.28
2022-12-06T13:11:04.775Z,97424.34
2022-12-06T13:13:40.504Z,97423.41
2022-12-06T13:16:15.298Z,97422.47
2022-12-06T13:18:48.778Z,97433.88
2022-12-06T13:21:27.989Z,97441.97
2022-12-06T13:24:07.723Z,97441.22
2022-12-06T13:26:43.161Z,97442.63
2022-12-06T13:29:34.218Z,97442.63
2022-12-06T13:32:18.488Z,97444.84
2022-12-06T13:35:15.948Z,97434.22
2022-12-06T13:38:22.676Z,97439.06
2022-12-06T13:41:02.990Z,97440.72
2022-12-06T13:43:32.735Z,97438.44
2022-12-06T13:46:07.930Z,97438.03
2022-12-06T13:48:38.038Z,97432.81
2022-12-06T13:51:30.986Z,97434.69
2022-12-06T13:54:06.804Z,97429.34
2022-12-06T13:56:33.734Z,97438.16
2022-12-06T13:59:20.659Z,97426.75
2022-12-06T14:01:55.304Z,97429.22
2022-12-06T14:07:00.522Z,97431.97
2022-12-06T14:09:36.916Z,97430.06
2022-12-06T14:12:09.590Z,97437.19
2022-12-06T14:14:36.493Z,97431.97
2022-12-06T14:17:11.586Z,97447.66
2022-12-06T14:19:44.953Z,97439.81
2022-12-06T14:22:30.460Z,97437.63
2022-12-06T14:25:07.211Z,97440.97
2022-12-06T14:27:42.663Z,97439.28
2022-12-06T14:30:25.176Z,97431.50
2022-12-06T14:32:55.582Z,97439.28
2022-12-06T14:35:36.224Z,97434.31
2022-12-06T14:38:25.161Z,97436.19
2022-12-06T14:41:11.805Z,97435.44
2022-12-06T14:43:39.908Z,97434.50
2022-12-06T14:46:11.988Z,97423.66
2022-12-06T14:48:58.414Z,97423.03
2022-12-06T14:51:34.063Z,97433.06
2022-12-06T14:54:27.995Z,97424.47
2022-12-06T14:56:55.225Z,97428.03
2022-12-06T15:00:02.941Z,97421.56
2022-12-06T15:02:26.208Z,97434.44
2022-12-06T15:04:53.174Z,97427.41
2022-12-06T15:07:41.810Z,97431.81
2022-12-06T15:10:30.000Z,97432.44
2022-12-06T15:13:08.825Z,97435.06
2022-12-06T15:15:38.099Z,97433.28
2022-12-06T15:18:13.466Z,97437.13
2022-12-06T15:20:40.732Z,97432.88
2022-12-06T15:23:28.360Z,97428.25
2022-12-06T15:25:55.318Z,97431.00
2022-12-06T15:28:22.915Z,97423.44
2022-12-06T15:30:50.669Z,97431.63
2022-12-06T15:33:23.271Z,97422.41
2022-12-06T15:35:52.255Z,97425.78
2022-12-06T15:38:19.484Z,97424.81
2022-12-06T15:40:49.429Z,97411.56
2022-12-06T15:43:36.846Z,97421.38
2022-12-06T15:46:05.374Z,97416.78
2022-12-06T15:48:36.879Z,97411.53
2022-12-06T15:51:09.268Z,97418.88
2022-12-06T15:53:37.762Z,97424.09
2022-12-06T15:56:05.214Z,97415.53
2022-12-06T15:58:32.207Z,97415.53
2022-12-06T16:01:00.704Z,97419.09
2022-12-06T16:03:28.003Z,97415.53
2022-12-06T16:05:57.168Z,97420.75
2022-12-06T16:08:24.388Z,97420.75
2022-12-06T16:13:38.839Z,97418.06
2022-12-06T16:16:06.492Z,97411.13
2022-12-06T16:18:33.902Z,97404.88
2022-12-06T16:21:01.198Z,97401.28
2022-12-06T16:24:12.358Z,97386.06
2022-12-06T16:26:44.083Z,97405.06
2022-12-06T16:29:17.840Z,97399.22
2022-12-06T16:31:45.695Z,97395.06
2022-12-06T16:34:14.131Z,97388.34
2022-12-06T16:37:13.619Z,97396.19
2022-12-06T16:39:41.921Z,97394.13
2022-12-06T16:42:09.238Z,97398.38
2022-12-06T16:44:51.494Z,97394.44
2022-12-06T16:47:18.737Z,97388.47
2022-12-06T16:49:48.816Z,97395.06
2022-12-06T16:52:17.323Z,97404.16
2022-12-06T16:54:45.217Z,97396.31
2022-12-06T16:57:13.027Z,97403.31
2022-12-06T16:59:40.729Z,97403.03
2022-12-06T17:02:24.619Z,97395.28
2022-12-06T17:04:51.809Z,97391.91
2022-12-06T17:07:19.264Z,97397.25
2022-12-06T17:09:46.572Z,97401.88
2022-12-06T17:12:15.399Z,97399.44
2022-12-06T17:14:42.799Z,97402.56
2022-12-06T17:17:18.830Z,97399.97
2022-12-06T17:19:46.154Z,97401.13
2022-12-06T17:22:16.866Z,97407.81
2022-12-06T17:24:44.398Z,97402.56
2022-12-06T17:27:15.170Z,97407.28
2022-12-06T17:29:43.741Z,97406.56
2022-12-06T17:32:11.868Z,97409.69
2022-12-06T17:34:38.796Z,97403.41
2022-12-06T17:37:06.791Z,97402.16
2022-12-06T17:39:34.096Z,97397.03
2022-12-06T17:42:20.164Z,97388.97
2022-12-06T17:44:47.253Z,97394.38
2022-12-06T17:47:14.192Z,97396.69
2022-12-06T17:49:41.349Z,97392.41
2022-12-06T17:52:08.307Z,97391.91
2022-12-06T17:54:35.316Z,97384.16
2022-12-06T17:57:02.459Z,97382.28
2022-12-06T17:59:32.393Z,97372.06
2022-12-06T18:02:17.221Z,97374.47
2022-12-06T18:04:45.760Z,97368.84
2022-12-06T18:07:14.052Z,97368.69
2022-12-06T18:09:41.283Z,97362.97
2022-12-06T18:12:09.588Z,97368.56
2022-12-06T18:14:36.832Z,97365.25
2022-12-06T18:17:04.515Z,97349.72
2022-12-06T18:19:32.251Z,97354.75
2022-12-06T18:21:59.386Z,97347.63
2022-12-06T18:24:30.464Z,97342.53
2022-12-06T18:27:00.990Z,97339.06
2022-12-06T18:29:28.366Z,97333.81
2022-12-06T18:31:55.629Z,97341.28
2022-12-06T18:34:23.219Z,97339.50
2022-12-06T18:36:51.221Z,97331.69
2022-12-06T18:39:24.839Z,97333.97
2022-12-06T18:41:53.816Z,97330.53
2022-12-06T18:44:20.934Z,97330.84
2022-12-06T18:46:48.422Z,97323.72
2022-12-06T18:49:15.930Z,97325.38
2022-12-06T18:51:43.595Z,97318.31
2022-12-06T18:54:14.352Z,97314.44
2022-12-06T18:56:42.040Z,97322.06
2022-12-06T18:59:11.348Z,97310.16
2022-12-06T19:01:41.387Z,97298.03
2022-12-06T19:04:13.463Z,97308.69
2022-12-06T19:06:40.751Z,97290.72
2022-12-06T19:09:12.787Z,97297.63
2022-12-06T19:11:56.645Z,97286.78
2022-12-06T19:14:31.384Z,97290.66
2022-12-06T19:17:02.827Z,97298.34
2022-12-06T19:19:30.913Z,97286.16
2022-12-06T19:21:59.021Z,97286.97
2022-12-06T19:24:28.701Z,97291.94
2022-12-06T19:27:00.232Z,97285.94
2022-12-06T19:29:32.182Z,97285.06
2022-12-06T19:32:00.180Z,97279.66
2022-12-06T19:34:28.016Z,97284.47
2022-12-06T19:36:57.568Z,97280.09
2022-12-06T19:39:26.748Z,97283.41
2022-12-06T19:42:12.738Z,97282.13
2022-12-06T19:44:40.223Z,97278.81
2022-12-06T19:47:08.081Z,97276.72
2022-12-06T19:49:35.667Z,97269.66
2022-12-06T19:52:02.935Z,97272.34
2022-12-06T19:54:31.786Z,97269.03
2022-12-06T19:57:00.705Z,97263.38
2022-12-06T19:59:30.733Z,97265.34
2022-12-06T20:02:00.843Z,97274.56
2022-12-06T20:04:31.817Z,97260.06
2022-12-06T20:06:59.140Z,97258.09
2022-12-06T20:09:28.906Z,97265.69
2022-12-06T20:12:04.816Z,97270.34
2022-12-06T20:14:41.429Z,97269.03
2022-12-06T20:17:14.878Z,97267.69
2022-12-06T20:19:46.724Z,97268.69
2022-12-06T20:22:16.523Z,97270.38
2022-12-06T20:24:43.916Z,97267.53
2022-12-06T20:27:12.387Z,97264.09
2022-12-06T20:29:40.979Z,97275.22
2022-12-06T20:32:09.456Z,97266.03
2022-12-06T20:34:37.289Z,97266.97
2022-12-06T20:37:06.202Z,97268.09
2022-12-06T20:39:36.562Z,97266.97
2022-12-06T20:42:07.405Z,97271.25
2022-12-06T20:44:36.180Z,97267.72
2022-12-06T20:47:05.119Z,97267.44
2022-12-06T20:49:33.602Z,97275.63
2022-12-06T20:52:03.108Z,97274.69
2022-12-06T20:54:30.515Z,97276.00
2022-12-06T20:56:58.585Z,97274.13
2022-12-06T20:59:25.646Z,97268.00
2022-12-06T21:01:52.905Z,97270.97
2022-12-06T21:04:20.041Z,97265.31
2022-12-06T21:06:47.129Z,97269.84
2022-12-06T21:09:14.322Z,97268.84
2022-12-06T21:11:41.676Z,97269.97
2022-12-06T21:14:11.466Z,97259.63
2022-12-06T21:16:40.157Z,97252.88
2022-12-06T21:19:11.949Z,97240.56
2022-12-06T21:21:41.384Z,97245.06
2022-12-06T21:24:14.834Z,97251.16
2022-12-06T21:26:42.360Z,97244.75
2022-12-06T21:29:15.544Z,97244.94
2022-12-06T21:31:42.709Z,97247.25
2022-12-06T21:34:11.073Z,97241.34
2022-12-06T21:36:38.213Z,97251.44
2022-12-06T21:39:06.079Z,97248.94
2022-12-06T21:41:33.482Z,97239.91
2022-12-06T21:44:01.464Z,97240.09
2022-12-06T21:46:28.344Z,97236.19
2022-12-06T21:48:57.773Z,97236.19
2022-12-06T21:51:27.745Z,97231.75
2022-12-06T21:53:55.659Z,97231.47
2022-12-06T21:56:25.171Z,97220.22
2022-12-06T21:58:52.583Z,97232.94
2022-12-06T22:01:24.225Z,97223.72
2022-12-06T22:03:53.496Z,97219.63
2022-12-06T22:06:21.971Z,97229.19
2022-12-06T22:08:50.013Z,97217.50
2022-12-06T22:11:18.030Z,97221.03
2022-12-06T22:13:45.896Z,97217.63
2022-12-06T22:16:13.982Z,97214.47
2022-12-06T22:18:45.608Z,97211.94
2022-12-06T22:21:21.543Z,97214.56
2022-12-06T22:23:49.121Z,97205.75
2022-12-06T22:26:19.698Z,97205.94
2022-12-06T22:28:47.893Z,97208.06
2022-12-06T22:31:19.307Z,97210.78
2022-12-06T22:33:47.781Z,97204.28
2022-12-06T22:36:16.068Z,97207.59
2022-12-06T22:38:43.714Z,97203.00
2022-12-06T22:41:11.260Z,97201.50
2022-12-06T22:43:38.262Z,97193.13
2022-12-06T22:46:14.961Z,97189.34
2022-12-06T22:48:42.969Z,97190.75
2022-12-06T22:51:10.041Z,97188.34
2022-12-06T22:53:37.520Z,97196.31
2022-12-06T22:56:05.140Z,97188.34
2022-12-06T22:58:32.518Z,97187.41
2022-12-06T23:00:59.578Z,97197.63
2022-12-06T23:03:26.738Z,97209.16
2022-12-06T23:06:00.635Z,97215.06
2022-12-06T23:08:27.935Z,97201.53
2022-12-06T23:11:03.685Z,97214.88
2022-12-06T23:13:31.117Z,97198.75
2022-12-06T23:16:04.953Z,97210.06
2022-12-06T23:18:32.210Z,97206.91
2022-12-06T23:21:11.458Z,97220.09
2022-12-06T23:23:41.556Z,97220.91
2022-12-06T23:26:14.567Z,97223.81
2022-12-06T23:28:42.185Z,97235.13
2022-12-06T23:31:17.996Z,97231.53
2022-12-06T23:33:46.639Z,97230.66
2022-12-06T23:36:17.850Z,97243.47
2022-12-06T23:38:45.322Z,97245.16
2022-12-06T23:41:21.611Z,97236.06
2022-12-06T23:43:48.580Z,97241.66
2022-12-06T23:46:22.186Z,97237.19
2022-12-06T23:48:53.322Z,97234.03
2022-12-06T23:51:23.421Z,97223.97
2022-12-06T23:53:52.545Z,97236.16
2022-12-06T23:56:21.398Z,97237.53
2022-12-06T23:58:50.704Z,97242.25
